sensor_id;sensor_type;location;lat;lon;timestamp;temperature;humidity
76291;DHT22;65100;46.884;17.410;2023-06-24T00:00:00;19.24;76.28
76291;DHT22;65100;46.884;17.410;2023-06-24T00:02:26;19.25;76.91
76291;DHT22;65100;46.884;17.410;2023-06-24T00:04:52;19.29;77.07
76291;DHT22;65100;46.884;17.410;2023-06-24T00:07:17;19.25;76.20
76291;DHT22;65100;46.884;17.410;2023-06-24T00:09:42;19.34;76.27
76291;DHT22;65100;46.884;17.410;2023-06-24T00:12:08;19.36;76.03
76291;DHT22;65100;46.884;17.410;2023-06-24T00:14:33;19.34;76.04
76291;DHT22;65100;46.884;17.410;2023-06-24T00:17:01;19.38;75.92
76291;DHT22;65100;46.884;17.410;2023-06-24T00:19:27;19.32;76.62
76291;DHT22;65100;46.884;17.410;2023-06-24T00:21:53;19.34;76.15
76291;DHT22;65100;46.884;17.410;2023-06-24T00:24:20;19.28;75.73
76291;DHT22;65100;46.884;17.410;2023-06-24T00:26:46;19.24;75.81
76291;DHT22;65100;46.884;17.410;2023-06-24T00:29:13;19.25;75.86
76291;DHT22;65100;46.884;17.410;2023-06-24T00:31:38;19.19;75.17
76291;DHT22;65100;46.884;17.410;2023-06-24T00:34:04;19.27;76.81
76291;DHT22;65100;46.884;17.410;2023-06-24T00:36:29;19.18;74.01
76291;DHT22;65100;46.884;17.410;2023-06-24T00:38:57;19.25;74.61
76291;DHT22;65100;46.884;17.410;2023-06-24T00:41:27;19.24;73.46
76291;DHT22;65100;46.884;17.410;2023-06-24T00:43:53;19.32;73.43
76291;DHT22;65100;46.884;17.410;2023-06-24T00:46:18;19.28;72.97
76291;DHT22;65100;46.884;17.410;2023-06-24T00:48:44;19.29;71.99
76291;DHT22;65100;46.884;17.410;2023-06-24T00:51:10;19.32;72.41
76291;DHT22;65100;46.884;17.410;2023-06-24T00:53:36;19.29;71.61
76291;DHT22;65100;46.884;17.410;2023-06-24T00:56:01;19.22;71.33
76291;DHT22;65100;46.884;17.410;2023-06-24T00:58:29;19.29;71.98
76291;DHT22;65100;46.884;17.410;2023-06-24T01:00:56;19.31;71.81
76291;DHT22;65100;46.884;17.410;2023-06-24T01:03:24;19.29;72.54
76291;DHT22;65100;46.884;17.410;2023-06-24T01:05:50;19.32;72.46
76291;DHT22;65100;46.884;17.410;2023-06-24T01:08:17;19.31;72.03
76291;DHT22;65100;46.884;17.410;2023-06-24T01:10:44;19.25;72.62
76291;DHT22;65100;46.884;17.410;2023-06-24T01:13:10;19.18;71.61
76291;DHT22;65100;46.884;17.410;2023-06-24T01:15:36;19.17;72.32
76291;DHT22;65100;46.884;17.410;2023-06-24T01:18:07;19.21;72.98
76291;DHT22;65100;46.884;17.410;2023-06-24T01:21:02;19.11;72.42
76291;DHT22;65100;46.884;17.410;2023-06-24T01:24:30;19.12;72.71
76291;DHT22;65100;46.884;17.410;2023-06-24T01:34:37;19.04;72.48
76291;DHT22;65100;46.884;17.410;2023-06-24T01:37:12;19.00;72.93
76291;DHT22;65100;46.884;17.410;2023-06-24T01:39:47;18.90;73.41
76291;DHT22;65100;46.884;17.410;2023-06-24T01:42:16;18.94;72.78
76291;DHT22;65100;46.884;17.410;2023-06-24T01:44:44;18.94;72.39
76291;DHT22;65100;46.884;17.410;2023-06-24T01:47:10;18.94;72.06
76291;DHT22;65100;46.884;17.410;2023-06-24T01:49:40;18.94;73.05
76291;DHT22;65100;46.884;17.410;2023-06-24T01:52:08;18.93;71.60
76291;DHT22;65100;46.884;17.410;2023-06-24T01:54:35;18.93;71.06
76291;DHT22;65100;46.884;17.410;2023-06-24T01:57:03;18.85;72.44
76291;DHT22;65100;46.884;17.410;2023-06-24T01:59:29;18.85;72.17
76291;DHT22;65100;46.884;17.410;2023-06-24T02:01:55;18.94;72.29
76291;DHT22;65100;46.884;17.410;2023-06-24T02:04:23;18.90;73.39
76291;DHT22;65100;46.884;17.410;2023-06-24T02:06:49;18.88;72.96
76291;DHT22;65100;46.884;17.410;2023-06-24T02:09:16;18.88;73.08
76291;DHT22;65100;46.884;17.410;2023-06-24T02:11:43;18.81;74.09
76291;DHT22;65100;46.884;17.410;2023-06-24T02:14:10;18.75;73.92
76291;DHT22;65100;46.884;17.410;2023-06-24T02:16:37;18.68;73.37
76291;DHT22;65100;46.884;17.410;2023-06-24T02:19:08;18.61;73.60
76291;DHT22;65100;46.884;17.410;2023-06-24T02:21:35;18.54;72.60
76291;DHT22;65100;46.884;17.410;2023-06-24T02:24:02;18.56;73.05
76291;DHT22;65100;46.884;17.410;2023-06-24T02:26:28;18.71;73.50
76291;DHT22;65100;46.884;17.410;2023-06-24T02:28:54;18.71;73.77
76291;DHT22;65100;46.884;17.410;2023-06-24T02:31:20;18.73;73.07
76291;DHT22;65100;46.884;17.410;2023-06-24T02:33:45;18.81;73.62
76291;DHT22;65100;46.884;17.410;2023-06-24T02:36:11;18.80;73.24
76291;DHT22;65100;46.884;17.410;2023-06-24T02:38:37;18.78;73.08
76291;DHT22;65100;46.884;17.410;2023-06-24T02:41:02;18.73;73.38
76291;DHT22;65100;46.884;17.410;2023-06-24T02:43:30;18.67;72.60
76291;DHT22;65100;46.884;17.410;2023-06-24T02:45:56;18.60;72.60
76291;DHT22;65100;46.884;17.410;2023-06-24T02:48:23;18.65;73.50
76291;DHT22;65100;46.884;17.410;2023-06-24T02:50:48;18.64;73.28
76291;DHT22;65100;46.884;17.410;2023-06-24T02:53:15;18.67;72.18
76291;DHT22;65100;46.884;17.410;2023-06-24T02:55:42;18.74;72.42
76291;DHT22;65100;46.884;17.410;2023-06-24T02:58:08;18.73;71.57
76291;DHT22;65100;46.884;17.410;2023-06-24T03:00:35;18.77;72.59
76291;DHT22;65100;46.884;17.410;2023-06-24T03:03:04;18.67;72.55
76291;DHT22;65100;46.884;17.410;2023-06-24T03:05:30;18.71;72.72
76291;DHT22;65100;46.884;17.410;2023-06-24T03:07:58;18.78;72.11
76291;DHT22;65100;46.884;17.410;2023-06-24T03:10:24;18.73;71.91
76291;DHT22;65100;46.884;17.410;2023-06-24T03:12:51;18.71;72.82
76291;DHT22;65100;46.884;17.410;2023-06-24T03:15:16;18.81;73.84
76291;DHT22;65100;46.884;17.410;2023-06-24T03:17:42;18.87;73.14
76291;DHT22;65100;46.884;17.410;2023-06-24T03:20:08;18.80;72.04
76291;DHT22;65100;46.884;17.410;2023-06-24T03:22:34;18.93;72.54
76291;DHT22;65100;46.884;17.410;2023-06-24T03:25:00;19.03;73.54
76291;DHT22;65100;46.884;17.410;2023-06-24T03:27:25;19.07;72.25
76291;DHT22;65100;46.884;17.410;2023-06-24T03:29:50;19.31;72.45
76291;DHT22;65100;46.884;17.410;2023-06-24T03:32:16;19.36;71.75
76291;DHT22;65100;46.884;17.410;2023-06-24T03:34:41;19.38;70.41
76291;DHT22;65100;46.884;17.410;2023-06-24T03:37:07;19.34;71.90
76291;DHT22;65100;46.884;17.410;2023-06-24T03:39:32;19.17;70.46
76291;DHT22;65100;46.884;17.410;2023-06-24T03:41:58;19.19;71.38
76291;DHT22;65100;46.884;17.410;2023-06-24T03:44:23;19.27;70.84
76291;DHT22;65100;46.884;17.410;2023-06-24T03:46:49;19.27;72.06
76291;DHT22;65100;46.884;17.410;2023-06-24T03:49:14;19.24;70.21
76291;DHT22;65100;46.884;17.410;2023-06-24T03:51:40;19.32;71.77
76291;DHT22;65100;46.884;17.410;2023-06-24T03:54:05;19.25;70.68
76291;DHT22;65100;46.884;17.410;2023-06-24T03:56:31;19.34;71.60
76291;DHT22;65100;46.884;17.410;2023-06-24T03:58:56;19.47;69.52
76291;DHT22;65100;46.884;17.410;2023-06-24T04:01:22;19.52;68.31
76291;DHT22;65100;46.884;17.410;2023-06-24T04:03:47;19.55;70.68
76291;DHT22;65100;46.884;17.410;2023-06-24T04:06:13;19.59;71.45
76291;DHT22;65100;46.884;17.410;2023-06-24T04:08:38;19.72;70.00
76291;DHT22;65100;46.884;17.410;2023-06-24T04:11:05;19.85;70.58
76291;DHT22;65100;46.884;17.410;2023-06-24T04:13:32;19.89;70.45
76291;DHT22;65100;46.884;17.410;2023-06-24T04:15:57;19.97;70.31
76291;DHT22;65100;46.884;17.410;2023-06-24T04:18:22;20.27;70.13
76291;DHT22;65100;46.884;17.410;2023-06-24T04:20:48;20.37;67.86
76291;DHT22;65100;46.884;17.410;2023-06-24T04:23:14;20.25;68.22
76291;DHT22;65100;46.884;17.410;2023-06-24T04:25:40;20.54;68.24
76291;DHT22;65100;46.884;17.410;2023-06-24T04:28:05;20.73;65.64
76291;DHT22;65100;46.884;17.410;2023-06-24T04:30:32;21.10;65.23
76291;DHT22;65100;46.884;17.410;2023-06-24T04:32:57;21.08;66.85
76291;DHT22;65100;46.884;17.410;2023-06-24T04:35:24;21.41;64.37
76291;DHT22;65100;46.884;17.410;2023-06-24T04:37:49;21.38;64.37
76291;DHT22;65100;46.884;17.410;2023-06-24T04:40:17;21.04;64.95
76291;DHT22;65100;46.884;17.410;2023-06-24T04:42:42;21.12;65.33
76291;DHT22;65100;46.884;17.410;2023-06-24T04:45:08;21.37;64.63
76291;DHT22;65100;46.884;17.410;2023-06-24T04:47:33;21.42;64.75
76291;DHT22;65100;46.884;17.410;2023-06-24T04:49:59;21.63;64.61
76291;DHT22;65100;46.884;17.410;2023-06-24T04:52:24;21.85;65.01
76291;DHT22;65100;46.884;17.410;2023-06-24T04:54:50;21.75;64.22
76291;DHT22;65100;46.884;17.410;2023-06-24T04:57:29;21.72;65.11
76291;DHT22;65100;46.884;17.410;2023-06-24T04:59:55;21.83;63.26
76291;DHT22;65100;46.884;17.410;2023-06-24T05:02:21;22.02;63.41
76291;DHT22;65100;46.884;17.410;2023-06-24T05:04:47;22.26;63.73
76291;DHT22;65100;46.884;17.410;2023-06-24T05:07:12;22.44;63.30
76291;DHT22;65100;46.884;17.410;2023-06-24T05:09:38;22.66;61.09
76291;DHT22;65100;46.884;17.410;2023-06-24T05:12:04;22.63;62.07
76291;DHT22;65100;46.884;17.410;2023-06-24T05:14:34;22.68;61.74
76291;DHT22;65100;46.884;17.410;2023-06-24T05:16:59;22.63;61.57
76291;DHT22;65100;46.884;17.410;2023-06-24T05:19:25;22.59;61.52
76291;DHT22;65100;46.884;17.410;2023-06-24T05:21:50;22.93;61.87
76291;DHT22;65100;46.884;17.410;2023-06-24T05:24:16;22.93;61.27
76291;DHT22;65100;46.884;17.410;2023-06-24T05:26:41;22.93;61.86
76291;DHT22;65100;46.884;17.410;2023-06-24T05:29:06;22.96;60.37
76291;DHT22;65100;46.884;17.410;2023-06-24T05:31:32;23.03;60.41
76291;DHT22;65100;46.884;17.410;2023-06-24T05:33:57;22.97;60.29
76291;DHT22;65100;46.884;17.410;2023-06-24T05:36:23;23.14;59.56
76291;DHT22;65100;46.884;17.410;2023-06-24T05:38:48;23.08;60.79
76291;DHT22;65100;46.884;17.410;2023-06-24T05:41:14;23.32;60.12
76291;DHT22;65100;46.884;17.410;2023-06-24T05:43:42;23.45;60.40
76291;DHT22;65100;46.884;17.410;2023-06-24T05:46:07;23.58;59.53
76291;DHT22;65100;46.884;17.410;2023-06-24T05:48:33;23.59;58.68
76291;DHT22;65100;46.884;17.410;2023-06-24T05:50:58;23.27;59.99
76291;DHT22;65100;46.884;17.410;2023-06-24T05:53:24;23.54;58.52
76291;DHT22;65100;46.884;17.410;2023-06-24T05:55:50;23.35;59.28
76291;DHT22;65100;46.884;17.410;2023-06-24T05:58:15;23.58;58.66
76291;DHT22;65100;46.884;17.410;2023-06-24T06:00:40;23.71;58.73
76291;DHT22;65100;46.884;17.410;2023-06-24T06:03:06;23.95;57.82
76291;DHT22;65100;46.884;17.410;2023-06-24T06:05:31;23.85;58.24
76291;DHT22;65100;46.884;17.410;2023-06-24T06:07:57;23.98;57.78
76291;DHT22;65100;46.884;17.410;2023-06-24T06:10:22;24.18;58.00
76291;DHT22;65100;46.884;17.410;2023-06-24T06:12:48;24.20;57.20
76291;DHT22;65100;46.884;17.410;2023-06-24T06:15:13;24.43;57.23
76291;DHT22;65100;46.884;17.410;2023-06-24T06:17:39;24.56;57.21
76291;DHT22;65100;46.884;17.410;2023-06-24T06:20:04;24.90;56.10
76291;DHT22;65100;46.884;17.410;2023-06-24T06:22:30;25.18;55.29
76291;DHT22;65100;46.884;17.410;2023-06-24T06:24:57;24.79;56.03
76291;DHT22;65100;46.884;17.410;2023-06-24T06:27:22;25.35;55.30
76291;DHT22;65100;46.884;17.410;2023-06-24T06:29:48;25.72;52.35
76291;DHT22;65100;46.884;17.410;2023-06-24T06:32:13;25.78;52.74
76291;DHT22;65100;46.884;17.410;2023-06-24T06:34:39;26.06;52.64
76291;DHT22;65100;46.884;17.410;2023-06-24T06:37:04;26.24;52.64
76291;DHT22;65100;46.884;17.410;2023-06-24T06:39:30;26.15;53.12
76291;DHT22;65100;46.884;17.410;2023-06-24T06:41:56;26.01;53.38
76291;DHT22;65100;46.884;17.410;2023-06-24T06:44:21;26.02;53.13
76291;DHT22;65100;46.884;17.410;2023-06-24T06:47:07;25.38;53.85
76291;DHT22;65100;46.884;17.410;2023-06-24T06:49:53;24.63;55.15
76291;DHT22;65100;46.884;17.410;2023-06-24T06:52:19;24.30;56.60
76291;DHT22;65100;46.884;17.410;2023-06-24T06:54:44;24.36;57.03
76291;DHT22;65100;46.884;17.410;2023-06-24T06:57:10;23.98;58.37
76291;DHT22;65100;46.884;17.410;2023-06-24T06:59:35;23.81;57.89
76291;DHT22;65100;46.884;17.410;2023-06-24T07:02:01;23.55;59.43
76291;DHT22;65100;46.884;17.410;2023-06-24T07:04:26;23.58;59.02
76291;DHT22;65100;46.884;17.410;2023-06-24T07:06:52;23.41;59.54
76291;DHT22;65100;46.884;17.410;2023-06-24T07:09:18;23.17;59.47
76291;DHT22;65100;46.884;17.410;2023-06-24T07:11:43;23.14;60.62
76291;DHT22;65100;46.884;17.410;2023-06-24T07:14:09;23.03;59.64
76291;DHT22;65100;46.884;17.410;2023-06-24T07:16:35;23.03;60.28
76291;DHT22;65100;46.884;17.410;2023-06-24T07:19:00;22.86;60.64
76291;DHT22;65100;46.884;17.410;2023-06-24T07:21:26;22.81;61.12
76291;DHT22;65100;46.884;17.410;2023-06-24T07:23:51;22.87;61.49
76291;DHT22;65100;46.884;17.410;2023-06-24T07:26:17;22.67;61.05
76291;DHT22;65100;46.884;17.410;2023-06-24T07:28:42;22.66;61.53
76291;DHT22;65100;46.884;17.410;2023-06-24T07:31:08;22.53;61.41
76291;DHT22;65100;46.884;17.410;2023-06-24T07:33:33;22.43;61.42
76291;DHT22;65100;46.884;17.410;2023-06-24T07:35:59;22.40;61.86
76291;DHT22;65100;46.884;17.410;2023-06-24T07:38:24;22.49;62.00
76291;DHT22;65100;46.884;17.410;2023-06-24T07:40:50;22.37;61.33
76291;DHT22;65100;46.884;17.410;2023-06-24T07:43:15;22.47;62.25
76291;DHT22;65100;46.884;17.410;2023-06-24T07:45:41;22.37;61.58
76291;DHT22;65100;46.884;17.410;2023-06-24T07:48:06;22.40;61.42
76291;DHT22;65100;46.884;17.410;2023-06-24T07:50:35;22.43;62.42
76291;DHT22;65100;46.884;17.410;2023-06-24T07:53:02;22.33;62.15
76291;DHT22;65100;46.884;17.410;2023-06-24T07:55:28;22.23;62.23
76291;DHT22;65100;46.884;17.410;2023-06-24T07:57:53;22.30;62.87
76291;DHT22;65100;46.884;17.410;2023-06-24T08:00:19;22.24;63.15
76291;DHT22;65100;46.884;17.410;2023-06-24T08:02:44;22.26;62.68
76291;DHT22;65100;46.884;17.410;2023-06-24T08:05:09;22.32;62.73
76291;DHT22;65100;46.884;17.410;2023-06-24T08:07:36;22.28;63.38
76291;DHT22;65100;46.884;17.410;2023-06-24T08:10:02;22.33;62.87
76291;DHT22;65100;46.884;17.410;2023-06-24T08:12:28;22.30;62.39
76291;DHT22;65100;46.884;17.410;2023-06-24T08:14:53;22.36;63.20
76291;DHT22;65100;46.884;17.410;2023-06-24T08:17:18;22.30;62.80
76291;DHT22;65100;46.884;17.410;2023-06-24T08:19:44;22.32;63.10
76291;DHT22;65100;46.884;17.410;2023-06-24T08:22:09;22.40;63.13
76291;DHT22;65100;46.884;17.410;2023-06-24T08:24:36;22.52;61.98
76291;DHT22;65100;46.884;17.410;2023-06-24T08:27:02;22.70;61.92
76291;DHT22;65100;46.884;17.410;2023-06-24T08:29:27;22.78;61.41
76291;DHT22;65100;46.884;17.410;2023-06-24T08:31:53;22.86;60.95
76291;DHT22;65100;46.884;17.410;2023-06-24T08:34:18;22.96;61.27
76291;DHT22;65100;46.884;17.410;2023-06-24T08:36:44;23.06;61.51
76291;DHT22;65100;46.884;17.410;2023-06-24T08:39:09;23.51;59.61
76291;DHT22;65100;46.884;17.410;2023-06-24T08:41:35;23.66;58.75
76291;DHT22;65100;46.884;17.410;2023-06-24T08:44:00;23.57;58.87
76291;DHT22;65100;46.884;17.410;2023-06-24T08:46:26;23.94;58.03
76291;DHT22;65100;46.884;17.410;2023-06-24T08:51:50;24.63;55.81
76291;DHT22;65100;46.884;17.410;2023-06-24T08:54:16;24.83;56.52
76291;DHT22;65100;46.884;17.410;2023-06-24T08:56:44;25.11;56.67
76291;DHT22;65100;46.884;17.410;2023-06-24T08:59:10;24.90;54.05
76291;DHT22;65100;46.884;17.410;2023-06-24T09:01:35;25.08;54.96
76291;DHT22;65100;46.884;17.410;2023-06-24T09:04:01;25.27;54.85
76291;DHT22;65100;46.884;17.410;2023-06-24T09:06:26;25.42;54.56
76291;DHT22;65100;46.884;17.410;2023-06-24T09:08:55;25.41;55.02
76291;DHT22;65100;46.884;17.410;2023-06-24T09:11:27;25.61;52.97
76291;DHT22;65100;46.884;17.410;2023-06-24T09:13:57;25.30;54.42
76291;DHT22;65100;46.884;17.410;2023-06-24T09:16:23;25.40;52.98
76291;DHT22;65100;46.884;17.410;2023-06-24T09:18:49;25.51;54.09
76291;DHT22;65100;46.884;17.410;2023-06-24T09:21:25;25.40;54.15
76291;DHT22;65100;46.884;17.410;2023-06-24T09:23:55;25.23;54.70
76291;DHT22;65100;46.884;17.410;2023-06-24T09:26:42;25.33;53.68
76291;DHT22;65100;46.884;17.410;2023-06-24T09:29:11;25.21;54.23
76291;DHT22;65100;46.884;17.410;2023-06-24T09:31:46;25.17;55.39
76291;DHT22;65100;46.884;17.410;2023-06-24T09:34:15;25.26;54.37
76291;DHT22;65100;46.884;17.410;2023-06-24T09:36:44;25.58;54.55
76291;DHT22;65100;46.884;17.410;2023-06-24T09:39:10;25.60;53.93
76291;DHT22;65100;46.884;17.410;2023-06-24T09:41:35;25.52;53.12
76291;DHT22;65100;46.884;17.410;2023-06-24T09:44:01;25.65;53.86
76291;DHT22;65100;46.884;17.410;2023-06-24T09:46:30;25.74;53.75
76291;DHT22;65100;46.884;17.410;2023-06-24T09:48:55;25.41;54.49
76291;DHT22;65100;46.884;17.410;2023-06-24T09:51:22;24.94;54.79
76291;DHT22;65100;46.884;17.410;2023-06-24T09:53:50;24.74;55.41
76291;DHT22;65100;46.884;17.410;2023-06-24T09:56:18;24.69;57.06
76291;DHT22;65100;46.884;17.410;2023-06-24T09:58:44;24.59;56.37
76291;DHT22;65100;46.884;17.410;2023-06-24T10:01:11;24.43;57.26
76291;DHT22;65100;46.884;17.410;2023-06-24T10:03:38;24.56;57.43
76291;DHT22;65100;46.884;17.410;2023-06-24T10:06:05;24.56;55.91
76291;DHT22;65100;46.884;17.410;2023-06-24T10:08:31;24.69;55.67
76291;DHT22;65100;46.884;17.410;2023-06-24T10:10:58;24.83;56.36
76291;DHT22;65100;46.884;17.410;2023-06-24T10:13:24;24.83;56.51
76291;DHT22;65100;46.884;17.410;2023-06-24T10:15:50;24.69;57.13
76291;DHT22;65100;46.884;17.410;2023-06-24T10:20:56;24.88;56.64
76291;DHT22;65100;46.884;17.410;2023-06-24T10:23:42;24.57;56.91
76291;DHT22;65100;46.884;17.410;2023-06-24T10:26:24;24.25;57.75
76291;DHT22;65100;46.884;17.410;2023-06-24T10:37:04;24.10;57.92
76291;DHT22;65100;46.884;17.410;2023-06-24T10:44:49;24.09;58.75
76291;DHT22;65100;46.884;17.410;2023-06-24T10:47:15;23.78;59.92
76291;DHT22;65100;46.884;17.410;2023-06-24T10:49:41;23.68;60.53
76291;DHT22;65100;46.884;17.410;2023-06-24T10:52:12;23.94;60.18
76291;DHT22;65100;46.884;17.410;2023-06-24T10:54:39;23.98;59.62
76291;DHT22;65100;46.884;17.410;2023-06-24T10:57:10;24.12;59.41
76291;DHT22;65100;46.884;17.410;2023-06-24T10:59:46;23.98;59.72
76291;DHT22;65100;46.884;17.410;2023-06-24T11:02:16;23.86;60.59
76291;DHT22;65100;46.884;17.410;2023-06-24T11:04:49;23.95;59.85
76291;DHT22;65100;46.884;17.410;2023-06-24T11:07:17;24.26;59.60
76291;DHT22;65100;46.884;17.410;2023-06-24T11:09:51;24.08;59.27
76291;DHT22;65100;46.884;17.410;2023-06-24T11:12:18;23.79;59.97
76291;DHT22;65100;46.884;17.410;2023-06-24T11:14:44;23.79;60.20
76291;DHT22;65100;46.884;17.410;2023-06-24T11:17:09;23.69;60.30
76291;DHT22;65100;46.884;17.410;2023-06-24T11:19:35;23.81;61.46
76291;DHT22;65100;46.884;17.410;2023-06-24T11:22:05;23.85;61.02
76291;DHT22;65100;46.884;17.410;2023-06-24T11:24:30;23.66;60.22
76291;DHT22;65100;46.884;17.410;2023-06-24T11:26:56;23.55;61.17
76291;DHT22;65100;46.884;17.410;2023-06-24T11:29:23;23.51;61.70
76291;DHT22;65100;46.884;17.410;2023-06-24T11:31:49;23.47;61.15
76291;DHT22;65100;46.884;17.410;2023-06-24T11:34:15;23.34;60.70
76291;DHT22;65100;46.884;17.410;2023-06-24T11:36:41;23.34;60.89
76291;DHT22;65100;46.884;17.410;2023-06-24T11:39:06;23.37;61.71
76291;DHT22;65100;46.884;17.410;2023-06-24T11:41:32;23.44;61.83
76291;DHT22;65100;46.884;17.410;2023-06-24T11:43:58;23.37;61.88
76291;DHT22;65100;46.884;17.410;2023-06-24T11:46:28;23.32;61.48
76291;DHT22;65100;46.884;17.410;2023-06-24T11:49:06;23.25;61.59
76291;DHT22;65100;46.884;17.410;2023-06-24T11:51:33;23.22;61.13
76291;DHT22;65100;46.884;17.410;2023-06-24T11:53:59;23.15;61.60
76291;DHT22;65100;46.884;17.410;2023-06-24T11:56:35;23.18;61.36
76291;DHT22;65100;46.884;17.410;2023-06-24T11:59:00;23.22;61.33
76291;DHT22;65100;46.884;17.410;2023-06-24T12:01:35;23.08;62.24
76291;DHT22;65100;46.884;17.410;2023-06-24T12:04:12;22.97;61.90
76291;DHT22;65100;46.884;17.410;2023-06-24T12:06:42;22.96;62.27
76291;DHT22;65100;46.884;17.410;2023-06-24T12:09:08;23.00;62.49
76291;DHT22;65100;46.884;17.410;2023-06-24T12:11:35;22.88;62.13
76291;DHT22;65100;46.884;17.410;2023-06-24T12:14:00;22.80;61.65
76291;DHT22;65100;46.884;17.410;2023-06-24T12:16:26;22.83;62.04
76291;DHT22;65100;46.884;17.410;2023-06-24T12:18:52;23.06;62.19
76291;DHT22;65100;46.884;17.410;2023-06-24T12:21:18;23.08;62.38
76291;DHT22;65100;46.884;17.410;2023-06-24T12:23:44;23.01;60.77
76291;DHT22;65100;46.884;17.410;2023-06-24T12:26:10;23.01;61.96
76291;DHT22;65100;46.884;17.410;2023-06-24T12:28:36;23.14;61.92
76291;DHT22;65100;46.884;17.410;2023-06-24T12:31:01;23.14;61.37
76291;DHT22;65100;46.884;17.410;2023-06-24T12:33:27;23.14;61.16
76291;DHT22;65100;46.884;17.410;2023-06-24T12:35:53;23.12;61.84
76291;DHT22;65100;46.884;17.410;2023-06-24T12:38:18;23.25;61.35
76291;DHT22;65100;46.884;17.410;2023-06-24T12:40:44;23.48;61.05
76291;DHT22;65100;46.884;17.410;2023-06-24T12:43:10;23.57;60.82
76291;DHT22;65100;46.884;17.410;2023-06-24T12:45:40;23.44;61.14
76291;DHT22;65100;46.884;17.410;2023-06-24T12:48:05;23.35;61.20
76291;DHT22;65100;46.884;17.410;2023-06-24T12:50:31;23.30;61.38
76291;DHT22;65100;46.884;17.410;2023-06-24T12:52:59;23.34;60.45
76291;DHT22;65100;46.884;17.410;2023-06-24T12:55:24;23.40;60.56
76291;DHT22;65100;46.884;17.410;2023-06-24T12:57:50;23.48;60.34
76291;DHT22;65100;46.884;17.410;2023-06-24T13:00:19;23.65;59.42
76291;DHT22;65100;46.884;17.410;2023-06-24T13:02:45;23.81;60.29
76291;DHT22;65100;46.884;17.410;2023-06-24T13:05:10;23.99;60.31
76291;DHT22;65100;46.884;17.410;2023-06-24T13:07:36;23.98;59.19
76291;DHT22;65100;46.884;17.410;2023-06-24T13:10:01;23.89;59.52
76291;DHT22;65100;46.884;17.410;2023-06-24T13:12:27;23.95;59.41
76291;DHT22;65100;46.884;17.410;2023-06-24T13:14:52;23.92;59.52
76291;DHT22;65100;46.884;17.410;2023-06-24T13:17:18;23.95;59.03
76291;DHT22;65100;46.884;17.410;2023-06-24T13:19:43;24.18;60.18
76291;DHT22;65100;46.884;17.410;2023-06-24T13:22:09;24.39;59.29
76291;DHT22;65100;46.884;17.410;2023-06-24T13:24:34;24.18;58.94
76291;DHT22;65100;46.884;17.410;2023-06-24T13:27:00;23.95;59.14
76291;DHT22;65100;46.884;17.410;2023-06-24T13:29:25;23.86;60.03
76291;DHT22;65100;46.884;17.410;2023-06-24T13:31:52;23.78;59.62
76291;DHT22;65100;46.884;17.410;2023-06-24T13:34:18;23.69;59.91
76291;DHT22;65100;46.884;17.410;2023-06-24T13:36:44;23.75;60.78
76291;DHT22;65100;46.884;17.410;2023-06-24T13:39:09;24.01;60.71
76291;DHT22;65100;46.884;17.410;2023-06-24T13:41:38;24.06;60.05
76291;DHT22;65100;46.884;17.410;2023-06-24T13:44:04;23.89;60.49
76291;DHT22;65100;46.884;17.410;2023-06-24T13:46:31;23.69;60.81
76291;DHT22;65100;46.884;17.410;2023-06-24T13:48:57;23.78;61.89
76291;DHT22;65100;46.884;17.410;2023-06-24T13:51:24;23.79;61.30
76291;DHT22;65100;46.884;17.410;2023-06-24T13:53:52;23.71;61.10
76291;DHT22;65100;46.884;17.410;2023-06-24T13:56:19;23.74;61.52
76291;DHT22;65100;46.884;17.410;2023-06-24T13:58:45;23.74;60.17
76291;DHT22;65100;46.884;17.410;2023-06-24T14:01:11;23.55;60.72
76291;DHT22;65100;46.884;17.410;2023-06-24T14:03:36;23.47;60.88
76291;DHT22;65100;46.884;17.410;2023-06-24T14:06:03;23.58;61.52
76291;DHT22;65100;46.884;17.410;2023-06-24T14:08:29;23.54;60.96
76291;DHT22;65100;46.884;17.410;2023-06-24T14:10:56;23.59;61.13
76291;DHT22;65100;46.884;17.410;2023-06-24T14:13:22;23.62;60.69
76291;DHT22;65100;46.884;17.410;2023-06-24T14:15:47;23.61;60.79
76291;DHT22;65100;46.884;17.410;2023-06-24T14:18:13;23.68;61.63
76291;DHT22;65100;46.884;17.410;2023-06-24T14:20:38;23.75;60.38
76291;DHT22;65100;46.884;17.410;2023-06-24T14:23:04;23.98;59.81
76291;DHT22;65100;46.884;17.410;2023-06-24T14:25:30;24.08;59.69
76291;DHT22;65100;46.884;17.410;2023-06-24T14:27:55;24.15;60.01
76291;DHT22;65100;46.884;17.410;2023-06-24T14:30:21;23.88;60.27
76291;DHT22;65100;46.884;17.410;2023-06-24T14:32:47;23.69;60.21
76291;DHT22;65100;46.884;17.410;2023-06-24T14:35:12;23.52;59.95
76291;DHT22;65100;46.884;17.410;2023-06-24T14:37:38;23.47;61.04
76291;DHT22;65100;46.884;17.410;2023-06-24T14:40:03;23.35;61.08
76291;DHT22;65100;46.884;17.410;2023-06-24T14:42:29;23.37;61.27
76291;DHT22;65100;46.884;17.410;2023-06-24T14:44:54;23.59;61.53
76291;DHT22;65100;46.884;17.410;2023-06-24T14:47:20;23.59;61.28
76291;DHT22;65100;46.884;17.410;2023-06-24T14:49:45;23.55;60.72
76291;DHT22;65100;46.884;17.410;2023-06-24T14:52:11;23.37;61.25
76291;DHT22;65100;46.884;17.410;2023-06-24T14:54:36;23.37;60.72
76291;DHT22;65100;46.884;17.410;2023-06-24T14:57:02;23.37;61.64
76291;DHT22;65100;46.884;17.410;2023-06-24T14:59:27;23.34;61.32
76291;DHT22;65100;46.884;17.410;2023-06-24T15:01:53;23.25;61.76
76291;DHT22;65100;46.884;17.410;2023-06-24T15:04:18;23.21;61.48
76291;DHT22;65100;46.884;17.410;2023-06-24T15:06:44;23.18;61.34
76291;DHT22;65100;46.884;17.410;2023-06-24T15:09:10;23.15;61.40
76291;DHT22;65100;46.884;17.410;2023-06-24T15:11:36;23.34;61.96
76291;DHT22;65100;46.884;17.410;2023-06-24T15:14:01;23.44;60.88
76291;DHT22;65100;46.884;17.410;2023-06-24T15:16:27;23.45;61.34
76291;DHT22;65100;46.884;17.410;2023-06-24T15:18:52;23.48;59.69
76291;DHT22;65100;46.884;17.410;2023-06-24T15:21:18;23.47;60.38
76291;DHT22;65100;46.884;17.410;2023-06-24T15:23:44;23.62;60.70
76291;DHT22;65100;46.884;17.410;2023-06-24T15:26:09;23.51;60.16
76291;DHT22;65100;46.884;17.410;2023-06-24T15:28:35;23.41;60.18
76291;DHT22;65100;46.884;17.410;2023-06-24T15:31:00;23.40;60.92
76291;DHT22;65100;46.884;17.410;2023-06-24T15:33:26;23.35;60.55
76291;DHT22;65100;46.884;17.410;2023-06-24T15:35:52;23.31;60.68
76291;DHT22;65100;46.884;17.410;2023-06-24T15:38:18;23.27;60.79